ADDS METAR Data INFO
IDs: Format: Raw Decoded Include TAF

Data at: 0024 UTC 17 Dec 2017

KRYW 170015Z AUTO 00000KT 1 1/2SM -SN BKN002 OVC008 06/06 A3001 RMK AO2 P0009 T00600057
KRYW 162355Z AUTO 11005KT 2SM -SN BKN002 OVC009 06/06 A3000 RMK AO2 P0007 60016 T00630060 10106 20063
KRYW 162335Z AUTO 13003KT 5SM +RA BKN009 BKN022 OVC055 07/06 A3001 RMK AO2 P0001 T00650061
KRYW 162315Z AUTO 00000KT 7SM -RA BKN005 OVC009 07/06 A3001 RMK AO2 T00660062
KRYW 162255Z AUTO 11003KT 7SM -RA BKN005 OVC025 07/07 A3002 RMK AO2 T00700065
KRYW 162235Z AUTO 12003KT 5SM -RA SCT003 OVC025 07/07 A3003 RMK AO2 T00720067
KRYW 162215Z AUTO 15006KT 10SM -DZ SCT012 SCT018 OVC025 07/07 A3003 RMK AO2 T00730067
KRYW 162155Z AUTO 17003KT 7SM RA SCT008 BKN012 OVC025 07/07 A3005 RMK AO2 P0004 T00730067
KRYW 162135Z AUTO 15004KT 7SM -RA SCT008 BKN013 OVC047 07/07 A3004 RMK AO2 P0004 T00740066
KRYW 162115Z AUTO 13003KT 4SM RA SCT027 OVC035 08/07 A3003 RMK AO2 P0003 T00750065
KRYW 162055Z AUTO 16005KT 7SM RA BKN038 OVC045 08/06 A3004 RMK AO2 P0005 60005 T00760064
KRYW 162035Z AUTO 16003KT 10SM RA SCT031 OVC044 08/06 A3005 RMK AO2 P0004 T00800064
KRYW 162015Z AUTO 18007KT 7SM +RA BKN031 OVC046 09/05 A3007 RMK AO2 T00860052
KRYW 161955Z AUTO 10SM -RA SCT032 SCT039 OVC046 09/05 A3006 RMK AO2 T00920047
KRYW 161935Z AUTO 10SM RA SCT032 OVC042 10/05 A3008 RMK AO2 T01000052
KRYW 161915Z AUTO 10SM BKN042 OVC050 10/05 A3009 RMK AO2 T01000050
KRYW 161855Z AUTO 10SM OVC040 10/05 A3010 RMK AO2 T00980045
KRYW 161835Z AUTO 10SM -RA OVC042 10/04 A3011 RMK AO2 T00990041
KRYW 161815Z AUTO 10SM -RA OVC044 10/03 A3011 RMK AO2 T01040034
KRYW 161755Z AUTO 10SM OVC046 11/03 A3013 RMK AO2 T01060025 10107 20075
KRYW 161735Z AUTO 10SM OVC048 10/04 A3012 RMK AO2 T01040040
KRYW 161715Z AUTO 10SM -RA OVC050 10/05 A3014 RMK AO2 T01010047
KRYW 161655Z AUTO 00000KT 10SM OVC050 10/04 A3014 RMK AO2 T01010039
KRYW 161635Z AUTO 10SM OVC060 10/04 A3013 RMK AO2 T01000039
KRYW 161615Z AUTO 10SM OVC060 10/04 A3014 RMK AO2 T00970038
KRYW 161555Z AUTO 10SM OVC060 09/04 A3015 RMK AO2 T00910043
KRYW 161535Z AUTO 00000KT 10SM OVC060 09/05 A3014 RMK AO2 T00870047
KRYW 161515Z AUTO 12003KT 10SM OVC060 09/05 A3014 RMK AO2 T00850045
KRYW 161455Z AUTO 10SM OVC070 09/04 A3015 RMK AO2 T00850037
KRYW 161435Z AUTO 10SM OVC070 09/02 A3015 RMK AO2 T00850021
KRYW 161415Z AUTO 10SM OVC070 08/02 A3014 RMK AO2 T00830019
KRYW 161355Z AUTO 10SM OVC070 08/02 A3015 RMK AO2 T00820016
KRYW 161335Z AUTO 10SM OVC070 08/02 A3015 RMK AO2 T00810016
KRYW 161315Z AUTO 10SM OVC080 08/02 A3015 RMK AO2 T00790020
KRYW 161255Z AUTO 10SM OVC080 08/02 A3015 RMK AO2 T00810015
KRYW 161235Z AUTO 26005KT 10SM OVC080 08/02 A3015 RMK AO2 T00780017
KRYW 161215Z AUTO 10SM OVC090 08/02 A3015 RMK AO2 T00750019
KRYW 161155Z AUTO 27005KT 10SM BKN090 08/02 A3015 RMK AO2 T00770018 10088 20073
KRYW 161135Z AUTO 27004KT 10SM CLR 08/02 A3014 RMK AO2 T00770017
KRYW 161115Z AUTO 10SM CLR 08/02 A3015 RMK AO2 T00760017
KRYW 161055Z AUTO 10SM CLR 08/02 A3017 RMK AO2 T00750017
KRYW 161035Z AUTO 25005KT 10SM CLR 08/02 A3017 RMK AO2 T00770016
KRYW 161015Z AUTO 25005KT 10SM CLR 08/02 A3018 RMK AO2 T00770015
KRYW 160955Z AUTO 25005KT 10SM CLR 08/02 A3018 RMK AO2 T00770015
KRYW 160935Z AUTO 10SM CLR 08/01 A3018 RMK AO2 T00800013
KRYW 160915Z AUTO 10SM CLR 08/01 A3019 RMK AO2 T00830011
KRYW 160855Z AUTO 10SM CLR 08/01 A3019 RMK AO2 T00830011
KRYW 160835Z AUTO 10SM CLR 08/01 A3020 RMK AO2 T00820011
KRYW 160815Z AUTO 10SM CLR 08/01 A3020 RMK AO2 T00820010
KRYW 160755Z AUTO 10SM CLR 08/01 A3020 RMK AO2 T00830010
KRYW 160735Z AUTO 10SM CLR 09/01 A3021 RMK AO2 T00860010
KRYW 160715Z AUTO 10SM CLR 09/01 A3021 RMK AO2 T00850011
KRYW 160655Z AUTO 10SM CLR 08/01 A3021 RMK AO2 T00820013
KRYW 160635Z AUTO 10SM CLR 08/01 A3022 RMK AO2 T00810010
KRYW 160615Z AUTO 10SM CLR 08/01 A3022 RMK AO2 T00810008
KRYW 160555Z AUTO 10SM CLR 08/01 A3022 RMK AO2 T00830006 10101 20080 401450065
KRYW 160535Z AUTO 10SM CLR 09/00 A3024 RMK AO2 T00900001
KRYW 160515Z AUTO 10SM CLR 09/00 A3024 RMK AO2 T00900001
KRYW 160455Z AUTO 10SM CLR 09/00 A3025 RMK AO2 T00900001
KRYW 160435Z AUTO 10SM CLR 09/00 A3025 RMK AO2 T00900001
KRYW 160415Z AUTO 10SM CLR 09/00 A3025 RMK AO2 T00900000
KRYW 160355Z AUTO 10SM CLR 09/00 A3025 RMK AO2 T00900000
KRYW 160335Z AUTO 10SM CLR 09/00 A3026 RMK AO2 T00880000
KRYW 160315Z AUTO 10SM CLR 09/M01 A3026 RMK AO2 T00891006
KRYW 160255Z AUTO 00000KT 10SM CLR 09/M01 A3026 RMK AO2 T00851012
KRYW 160235Z AUTO 14003KT 10SM CLR 09/M02 A3026 RMK AO2 T00931025
KRYW 160215Z AUTO 11004KT 10SM CLR 09/M03 A3025 RMK AO2 T00891030
KRYW 160155Z AUTO 09003KT 10SM CLR 09/M03 A3025 RMK AO2 T00861029
KRYW 160135Z AUTO 00000KT 10SM CLR 09/M03 A3025 RMK AO2 T00871030
KRYW 160115Z AUTO 00000KT 10SM CLR 09/M03 A3025 RMK AO2 T00891029
KRYW 160055Z AUTO 00000KT 10SM CLR 09/M02 A3025 RMK AO2 T00921024
KRYW 160035Z AUTO 00000KT 10SM CLR 10/M02 A3025 RMK AO2 T00951025
KRYW 160015Z AUTO 08003KT 10SM CLR 10/M02 A3025 RMK AO2 T00951020
KRYW 152355Z AUTO 00000KT 10SM CLR 10/M02 A3025 RMK AO2 T01001018 10145 20100
KRYW 152335Z AUTO 03003KT 10SM CLR 11/M02 A3024 RMK AO2 T01051016
KRYW 152315Z AUTO 01004KT 10SM CLR 11/M01 A3024 RMK AO2 T01131015
KRYW 152255Z AUTO 00000KT 10SM CLR 13/M02 A3024 RMK AO2 T01261023
KRYW 152235Z AUTO 00000KT 10SM CLR 13/M03 A3024 RMK AO2 T01341031
KRYW 152215Z AUTO 00000KT 10SM CLR 14/M03 A3023 RMK AO2 T01371033
KRYW 152155Z AUTO 01005KT 10SM CLR 14/M03 A3023 RMK AO2 T01401032
KRYW 152135Z AUTO 36004KT 10SM CLR 14/M03 A3023 RMK AO2 T01441031
KRYW 152115Z AUTO 02006KT 10SM CLR 14/M03 A3023 RMK AO2 T01431032
KRYW 152055Z AUTO 01005KT 10SM CLR 14/M03 A3024 RMK AO2 T01421032
KRYW 152035Z AUTO 02006KT 10SM CLR 14/M03 A3025 RMK AO2 T01411030
KRYW 152015Z AUTO 02003KT 10SM CLR 14/M02 A3025 RMK AO2 T01401024
KRYW 151955Z AUTO 03007G14KT 10SM CLR 14/M02 A3026 RMK AO2 T01381024
KRYW 151935Z AUTO 35003KT 10SM CLR 14/M02 A3026 RMK AO2 T01411024
KRYW 151915Z AUTO 36007KT 10SM CLR 14/M02 A3027 RMK AO2 T01371025
KRYW 151855Z AUTO 01008KT 350V050 10SM CLR 13/M02 A3028 RMK AO2 T01311025
KRYW 151835Z AUTO 35006KT 10SM CLR 13/00 A3029 RMK AO2 T01301003
KRYW 151815Z AUTO 03008KT 10SM CLR 12/00 A3030 RMK AO2 T01210000
KRYW 151755Z AUTO 03007KT 340V040 10SM CLR 11/00 A3033 RMK AO2 T01140000 10118 20065
KRYW 151735Z AUTO 10SM CLR 11/00 A3033 RMK AO2 T01110000
KRYW 151715Z AUTO 01009KT 10SM CLR 12/00 A3034 RMK AO2 T01180000
KRYW 151655Z AUTO 01008G14KT 10SM CLR 11/00 A3034 RMK AO2 T01141001
KRYW 151635Z AUTO 02005KT 10SM CLR 10/00 A3034 RMK AO2 T01040001
KRYW 151615Z AUTO 36005KT 10SM CLR 09/00 A3033 RMK AO2 T00890000
KRYW 151555Z AUTO 10SM CLR 08/00 A3032 RMK AO2 T00811005
KRYW 151535Z AUTO 10SM CLR 08/M01 A3032 RMK AO2 T00831010
KRYW 151515Z AUTO 34008KT 10SM CLR 08/M01 A3032 RMK AO2 T00831015
KRYW 151455Z AUTO 35008KT 10SM CLR 08/M02 A3032 RMK AO2 T00781017
KRYW 151435Z AUTO 10SM CLR 07/M02 A3030 RMK AO2 T00721020
KRYW 151415Z AUTO 10SM CLR 07/M02 A3029 RMK AO2 T00691021
KRYW 151355Z AUTO 35005KT 10SM CLR 07/M02 A3028 RMK AO2 T00671022
KRYW 151335Z AUTO 10SM CLR 07/M02 A3029 RMK AO2 T00651022
KRYW 151315Z AUTO 10SM CLR 07/M02 A3028 RMK AO2 T00661022
KRYW 151255Z AUTO 10SM CLR 07/M02 A3028 RMK AO2 T00701021
KRYW 151235Z AUTO 34006KT 10SM CLR 07/M02 A3027 RMK AO2 T00671020